Time,TemperatureF,DewpointF,PressureIn,WindDirection,WindDirectionDegrees,WindSpeedMPH,WindSpeedGustMPH,Humidity,HourlyPrecipIn,Conditions,Clouds,dailyrainin,SolarRadiationWatts/m^2,SoftwareType,DateUTC
2013-06-26 00:00:00,78.1,70.7,29.90,SW,222,0.0,3.0,78,0.00,RA,,0.00,0.0,WeatherDisplay:10.37,2013-06-26 05:00:00,
2013-06-26 00:10:00,77.7,70.7,29.91,SW,221,0.0,1.0,79,0.00,CLR,,0.00,0.0,WeatherDisplay:10.37,2013-06-26 05:10:00,
2013-06-26 00:20:00,77.2,70.5,29.91,SSW,200,0.0,1.0,80,0.00,CLR,,0.00,0.0,WeatherDisplay:10.37,2013-06-26 05:20:00,
2013-06-26 00:30:00,76.9,70.2,29.91,SSE,151,0.0,2.0,80,0.00,CLR,,0.00,0.0,WeatherDisplay:10.37,2013-06-26 05:30:00,
2013-06-26 00:40:00,76.9,70.3,29.90,SSE,156,0.0,2.0,80,0.00,CLR,,0.00,0.0,WeatherDisplay:10.37,2013-06-26 05:40:00,
2013-06-26 00:50:00,76.8,70.2,29.90,South,171,0.0,2.0,80,0.00,CLR,,0.00,0.0,WeatherDisplay:10.37,2013-06-26 05:50:00,
2013-06-26 01:00:00,76.4,70.2,29.90,SSW,205,0.0,1.0,81,0.00,CLR,,0.00,0.0,WeatherDisplay:10.37,2013-06-26 06:00:00,
2013-06-26 01:10:00,75.9,70.0,29.90,SSW,205,0.0,1.0,82,0.00,CLR,,0.00,0.0,WeatherDisplay:10.37,2013-06-26 06:10:00,
2013-06-26 01:20:00,75.6,70.1,29.90,SSE,156,0.0,1.0,83,0.00,CLR,,0.00,0.0,WeatherDisplay:10.37,2013-06-26 06:20:00,
2013-06-26 01:30:00,75.2,70.0,29.91,SE,146,0.0,1.0,84,0.00,CLR,,0.00,0.0,WeatherDisplay:10.37,2013-06-26 06:30:00,
2013-06-26 01:40:00,75.0,69.8,29.91,SE,135,0.0,1.0,84,0.00,CLR,,0.00,0.0,WeatherDisplay:10.37,2013-06-26 06:40:00,
2013-06-26 01:50:00,75.0,69.8,29.90,SE,145,0.0,2.0,84,0.00,CLR,,0.00,0.0,WeatherDisplay:10.37,2013-06-26 06:50:00,
2013-06-26 02:00:00,75.3,70.1,29.90,SSE,157,1.0,2.0,84,0.00,CLR,,0.00,0.0,WeatherDisplay:10.37,2013-06-26 07:00:00,
2013-06-26 02:10:00,75.2,70.0,29.90,SSE,147,0.0,3.0,84,0.00,CLR,,0.00,0.0,WeatherDisplay:10.37,2013-06-26 07:10:00,
2013-06-26 02:20:00,75.1,69.9,29.90,South,172,1.0,2.0,84,0.00,CLR,,0.00,0.0,WeatherDisplay:10.37,2013-06-26 07:20:00,
2013-06-26 02:30:00,74.9,70.1,29.89,SE,134,0.0,2.0,85,0.00,CLR,,0.00,0.0,WeatherDisplay:10.37,2013-06-26 07:30:00,
2013-06-26 02:40:00,74.9,69.7,29.89,South,179,0.0,1.0,84,0.00,CLR,,0.00,0.0,WeatherDisplay:10.37,2013-06-26 07:40:00,
2013-06-26 02:50:00,74.7,69.9,29.89,SSW,199,1.0,2.0,85,0.00,CLR,,0.00,0.0,WeatherDisplay:10.37,2013-06-26 07:50:00,
2013-06-26 03:00:00,74.7,69.9,29.89,South,187,0.0,1.0,85,0.00,CLR,,0.00,0.0,WeatherDisplay:10.37,2013-06-26 08:00:00,
2013-06-26 03:10:00,74.5,69.7,29.88,ESE,115,0.0,2.0,85,0.00,CLR,,0.00,0.0,WeatherDisplay:10.37,2013-06-26 08:10:00,
2013-06-26 03:20:00,74.5,69.7,29.88,SSW,212,1.0,4.0,85,0.00,CLR,,0.00,0.0,WeatherDisplay:10.37,2013-06-26 08:20:00,
2013-06-26 03:30:00,74.5,69.7,29.88,SSE,164,0.0,3.0,85,0.00,CLR,,0.00,0.0,WeatherDisplay:10.37,2013-06-26 08:30:00,
2013-06-26 03:40:00,74.5,69.7,29.88,South,184,0.0,3.0,85,0.00,CLR,,0.00,0.0,WeatherDisplay:10.37,2013-06-26 08:40:00,
2013-06-26 03:50:00,74.5,69.7,29.88,SSE,160,0.0,3.0,85,0.00,CLR,,0.00,0.0,WeatherDisplay:10.37,2013-06-26 08:50:00,
2013-06-26 04:00:00,74.3,69.5,29.88,South,179,0.0,2.0,85,0.00,CLR,,0.00,0.0,WeatherDisplay:10.37,2013-06-26 09:00:00,
2013-06-26 04:10:00,74.2,69.7,29.88,SSE,154,0.0,2.0,86,0.00,CLR,,0.00,0.0,WeatherDisplay:10.37,2013-06-26 09:10:00,
2013-06-26 04:20:00,74.1,69.6,29.88,SE,131,1.0,2.0,86,0.00,CLR,,0.00,0.0,WeatherDisplay:10.37,2013-06-26 09:20:00,
2013-06-26 04:30:00,74.0,69.6,29.88,SSE,150,0.0,3.0,86,0.00,CLR,,0.00,0.0,WeatherDisplay:10.37,2013-06-26 09:30:00,
2013-06-26 04:40:00,73.9,69.4,29.88,SSW,210,0.0,3.0,86,0.00,CLR,,0.00,0.0,WeatherDisplay:10.37,2013-06-26 09:40:00,
2013-06-26 04:50:00,73.7,69.6,29.88,SW,219,0.0,1.0,87,0.00,CLR,,0.00,0.0,WeatherDisplay:10.37,2013-06-26 09:50:00,
2013-06-26 05:00:00,73.6,69.5,29.88,SSE,161,0.0,1.0,87,0.00,CLR,,0.00,0.0,WeatherDisplay:10.37,2013-06-26 10:00:00,
2013-06-26 05:10:00,73.6,69.5,29.89,SE,143,0.0,2.0,87,0.00,CLR,,0.00,0.0,WeatherDisplay:10.37,2013-06-26 10:10:00,
2013-06-26 05:20:00,73.3,69.5,29.89,SE,140,0.0,1.0,88,0.00,CLR,,0.00,0.0,WeatherDisplay:10.37,2013-06-26 10:20:00,
2013-06-26 05:30:00,73.2,69.4,29.90,SE,139,0.0,1.0,88,0.00,CLR,,0.00,0.0,WeatherDisplay:10.37,2013-06-26 10:30:00,
2013-06-26 05:40:00,73.3,69.5,29.90,SE,139,0.0,1.0,88,0.00,CLR,,0.00,0.0,WeatherDisplay:10.37,2013-06-26 10:40:00,
2013-06-26 05:50:00,73.3,69.5,29.90,South,180,0.0,2.0,88,0.00,CLR,,0.00,0.0,WeatherDisplay:10.37,2013-06-26 10:50:00,
2013-06-26 06:00:00,73.3,69.5,29.90,SE,135,0.0,2.0,88,0.00,CLR,,0.00,0.0,WeatherDisplay:10.37,2013-06-26 11:00:00,
2013-06-26 06:10:00,73.4,69.6,29.90,SSE,159,0.0,1.0,88,0.00,CLR,,0.00,0.0,WeatherDisplay:10.37,2013-06-26 11:10:00,
2013-06-26 06:20:00,73.8,70.0,29.90,SSE,166,1.0,4.0,88,0.00,CLR,,0.00,0.0,WeatherDisplay:10.37,2013-06-26 11:20:00,
2013-06-26 06:30:00,74.4,70.3,29.91,SSE,151,0.0,3.0,87,0.00,CLR,,0.00,0.0,WeatherDisplay:10.37,2013-06-26 11:30:00,
2013-06-26 06:40:00,74.8,70.7,29.90,SSW,197,1.0,2.0,87,0.00,CLR,,0.00,0.0,WeatherDisplay:10.37,2013-06-26 11:40:00,
2013-06-26 06:50:00,75.0,70.5,29.91,SSW,198,2.0,4.0,86,0.00,CLR,,0.00,0.0,WeatherDisplay:10.37,2013-06-26 11:50:00,
2013-06-26 07:00:00,75.5,71.0,29.90,South,191,1.0,4.0,86,0.00,CLR,,0.00,0.0,WeatherDisplay:10.37,2013-06-26 12:00:00,
2013-06-26 07:10:00,76.5,71.3,29.91,SSW,212,3.0,6.0,84,0.00,CLR,,0.00,0.0,WeatherDisplay:10.37,2013-06-26 12:10:00,
2013-06-26 07:20:00,77.4,71.8,29.90,SSW,205,3.0,8.0,83,0.00,CLR,,0.00,0.0,WeatherDisplay:10.37,2013-06-26 12:20:00,
2013-06-26 07:30:00,78.2,72.2,29.90,SSW,206,3.0,8.0,82,0.00,CLR,,0.00,0.0,WeatherDisplay:10.37,2013-06-26 12:30:00,
2013-06-26 07:40:00,78.8,72.5,29.90,SSW,205,5.0,9.0,81,0.00,CLR,,0.00,0.0,WeatherDisplay:10.37,2013-06-26 12:40:00,
2013-06-26 07:50:00,79.6,72.9,29.90,SSW,204,2.0,9.0,80,0.00,CLR,,0.00,0.0,WeatherDisplay:10.37,2013-06-26 12:50:00,
2013-06-26 08:00:00,80.4,73.3,29.90,SW,218,3.0,6.0,79,0.00,CLR,,0.00,0.0,WeatherDisplay:10.37,2013-06-26 13:00:00,
2013-06-26 08:10:00,81.1,73.6,29.90,SSW,201,2.0,8.0,78,0.00,CLR,,0.00,0.0,WeatherDisplay:10.37,2013-06-26 13:10:00,
2013-06-26 08:20:00,81.5,73.6,29.90,SSW,212,6.0,12.0,77,0.00,CLR,,0.00,0.0,WeatherDisplay:10.37,2013-06-26 13:20:00,
2013-06-26 08:30:00,81.9,74.0,29.90,SSW,198,5.0,12.0,77,0.00,CLR,,0.00,0.0,WeatherDisplay:10.37,2013-06-26 13:30:00,
2013-06-26 08:40:00,82.0,74.1,29.90,SSW,207,5.0,12.0,77,0.00,CLR,,0.00,0.0,WeatherDisplay:10.37,2013-06-26 13:40:00,
2013-06-26 08:50:00,82.1,73.8,29.90,SW,219,5.0,9.0,76,0.00,CLR,,0.00,0.0,WeatherDisplay:10.37,2013-06-26 13:50:00,
2013-06-26 09:00:00,82.3,74.0,29.89,SSW,205,6.0,14.0,76,0.00,CLR,,0.00,0.0,WeatherDisplay:10.37,2013-06-26 14:00:00,
2013-06-26 09:10:00,83.0,74.2,29.89,SW,215,5.0,12.0,75,0.00,CLR,,0.00,0.0,WeatherDisplay:10.37,2013-06-26 14:10:00,
2013-06-26 09:20:00,83.8,75.0,29.89,SSW,202,5.0,9.0,75,0.00,CLR,,0.00,0.0,WeatherDisplay:10.37,2013-06-26 14:20:00,
2013-06-26 09:30:00,84.6,74.6,29.89,SSW,208,6.0,12.0,72,0.00,FEW,,0.00,0.0,WeatherDisplay:10.37,2013-06-26 14:30:00,
2013-06-26 09:40:00,85.7,75.6,29.89,SW,214,5.0,9.0,72,0.00,FEW,,0.00,0.0,WeatherDisplay:10.37,2013-06-26 14:40:00,
2013-06-26 09:50:00,86.4,75.9,29.89,SW,226,6.0,12.0,71,0.00,BKN,,0.00,0.0,WeatherDisplay:10.37,2013-06-26 14:50:00,
2013-06-26 10:00:00,86.7,74.8,29.89,SSW,209,7.0,15.0,68,0.00,BKN,,0.00,0.0,WeatherDisplay:10.37,2013-06-26 15:00:00,
2013-06-26 10:10:00,86.3,74.5,29.88,SW,215,6.0,16.0,68,0.00,SCT,,0.00,0.0,WeatherDisplay:10.37,2013-06-26 15:10:00,
2013-06-26 10:20:00,85.9,74.5,29.89,SSW,213,5.0,12.0,69,0.00,SCT,,0.00,0.0,WeatherDisplay:10.37,2013-06-26 15:20:00,
2013-06-26 10:30:00,86.1,74.8,29.90,SSW,211,6.0,13.0,69,0.00,SCT,,0.00,0.0,WeatherDisplay:10.37,2013-06-26 15:30:00,
2013-06-26 10:40:00,86.4,75.0,29.90,SSW,211,5.0,12.0,69,0.00,SCT,,0.00,0.0,WeatherDisplay:10.37,2013-06-26 15:40:00,
2013-06-26 10:50:00,86.8,74.5,29.89,SW,226,8.0,13.0,67,0.00,BKN,,0.00,0.0,WeatherDisplay:10.37,2013-06-26 15:50:00,
2013-06-26 11:00:00,85.9,74.1,29.88,SW,218,5.0,12.0,68,0.00,BKN,,0.00,0.0,WeatherDisplay:10.37,2013-06-26 16:00:00,
2013-06-26 11:10:00,85.2,73.9,29.88,SSW,211,6.0,10.0,69,0.00,OVC,,0.00,0.0,WeatherDisplay:10.37,2013-06-26 16:10:00,
2013-06-26 11:20:00,84.9,74.0,29.87,SSW,209,6.0,10.0,70,0.00,OVC,,0.00,0.0,WeatherDisplay:10.37,2013-06-26 16:20:00,
2013-06-26 11:30:00,85.0,74.5,29.86,SSW,200,6.0,9.0,71,0.00,BKN,,0.00,0.0,WeatherDisplay:10.37,2013-06-26 16:30:00,
2013-06-26 11:40:00,85.4,74.1,29.87,SW,215,6.0,12.0,69,0.00,BKN,,0.00,0.0,WeatherDisplay:10.37,2013-06-26 16:40:00,
2013-06-26 11:50:00,85.9,75.0,29.88,SW,214,3.0,8.0,70,0.00,BKN,,0.00,0.0,WeatherDisplay:10.37,2013-06-26 16:50:00,
2013-06-26 12:00:00,86.3,74.9,29.87,SW,220,5.0,12.0,69,0.00,BKN,,0.00,0.0,WeatherDisplay:10.37,2013-06-26 17:00:00,
2013-06-26 12:10:00,86.3,74.5,29.87,SSW,211,3.0,9.0,68,0.00,BKN,,0.00,0.0,WeatherDisplay:10.37,2013-06-26 17:10:00,
2013-06-26 12:20:00,86.7,74.9,29.87,SW,219,3.0,7.0,68,0.00,BKN,,0.00,0.0,WeatherDisplay:10.37,2013-06-26 17:20:00,
2013-06-26 12:30:00,87.1,74.4,29.86,SSW,209,5.0,10.0,66,0.00,FEW,,0.00,0.0,WeatherDisplay:10.37,2013-06-26 17:30:00,
2013-06-26 12:40:00,87.2,74.5,29.86,SSW,210,5.0,8.0,66,0.00,FEW,,0.00,0.0,WeatherDisplay:10.37,2013-06-26 17:40:00,
2013-06-26 12:50:00,86.7,74.0,29.85,SSW,207,6.0,10.0,66,0.00,CLR,,0.00,0.0,WeatherDisplay:10.37,2013-06-26 17:50:00,
2013-06-26 13:00:00,86.4,74.1,29.84,SSW,204,5.0,12.0,67,0.00,CLR,,0.00,0.0,WeatherDisplay:10.37,2013-06-26 18:00:00,
2013-06-26 13:10:00,86.4,74.6,29.84,SSW,208,6.0,12.0,68,0.00,CLR,,0.00,0.0,WeatherDisplay:10.37,2013-06-26 18:10:00,
2013-06-26 13:20:00,86.8,75.0,29.84,SSW,208,3.0,10.0,68,0.00,CLR,,0.00,0.0,WeatherDisplay:10.37,2013-06-26 18:20:00,
2013-06-26 13:30:00,88.5,75.7,29.84,SW,227,7.0,14.0,66,0.00,CLR,,0.00,0.0,WeatherDisplay:10.37,2013-06-26 18:30:00,
2013-06-26 13:40:00,88.8,74.6,29.84,SW,224,8.0,14.0,63,0.00,CLR,,0.00,0.0,WeatherDisplay:10.37,2013-06-26 18:40:00,
2013-06-26 13:50:00,89.2,75.4,29.84,SW,219,8.0,16.0,64,0.00,CLR,,0.00,0.0,WeatherDisplay:10.37,2013-06-26 18:50:00,
2013-06-26 14:00:00,89.7,75.4,29.83,SSW,212,8.0,15.0,63,0.00,CLR,,0.00,0.0,WeatherDisplay:10.37,2013-06-26 19:00:00,
2013-06-26 14:10:00,90.1,75.8,29.83,SW,218,6.0,12.0,63,0.00,CLR,,0.00,0.0,WeatherDisplay:10.37,2013-06-26 19:10:00,
2013-06-26 14:20:00,90.7,75.9,29.83,SW,214,5.0,13.0,62,0.00,CLR,,0.00,0.0,WeatherDisplay:10.37,2013-06-26 19:20:00,
2013-06-26 14:30:00,91.1,76.2,29.83,SSW,205,3.0,13.0,62,0.00,CLR,,0.00,0.0,WeatherDisplay:10.37,2013-06-26 19:30:00,
2013-06-26 14:40:00,91.2,76.3,29.82,SSW,213,5.0,12.0,62,0.00,CLR,,0.00,0.0,WeatherDisplay:10.37,2013-06-26 19:40:00,
2013-06-26 14:50:00,92.0,75.6,29.82,SSW,203,7.0,12.0,59,0.00,CLR,,0.00,0.0,WeatherDisplay:10.37,2013-06-26 19:50:00,
2013-06-26 15:00:00,92.1,75.2,29.81,SW,217,7.0,14.0,58,0.00,CLR,,0.00,0.0,WeatherDisplay:10.37,2013-06-26 20:00:00,
2013-06-26 15:10:00,92.3,74.9,29.81,SSW,208,5.0,12.0,57,0.00,CLR,,0.00,0.0,WeatherDisplay:10.37,2013-06-26 20:10:00,
2013-06-26 15:20:00,92.5,75.0,29.80,SW,216,7.0,15.0,57,0.00,CLR,,0.00,0.0,WeatherDisplay:10.37,2013-06-26 20:20:00,
2013-06-26 15:30:00,92.9,75.9,29.80,SSW,211,5.0,13.0,58,0.00,CLR,,0.00,0.0,WeatherDisplay:10.37,2013-06-26 20:30:00,
2013-06-26 15:40:00,93.1,74.0,29.80,SSW,211,7.0,14.0,54,0.00,CLR,,0.00,0.0,WeatherDisplay:10.37,2013-06-26 20:40:00,
2013-06-26 15:50:00,92.9,73.2,29.79,SW,229,9.0,16.0,53,0.00,CLR,,0.00,0.0,WeatherDisplay:10.37,2013-06-26 20:50:00,
2013-06-26 16:00:00,93.1,74.0,29.79,SSW,204,8.0,15.0,54,0.00,CLR,,0.00,0.0,WeatherDisplay:10.37,2013-06-26 21:00:00,
2013-06-26 16:10:00,93.3,74.8,29.78,SSW,208,6.0,13.0,55,0.00,CLR,,0.00,0.0,WeatherDisplay:10.37,2013-06-26 21:10:00,
2013-06-26 16:20:00,93.3,73.6,29.78,SW,214,6.0,16.0,53,0.00,CLR,,0.00,0.0,WeatherDisplay:10.37,2013-06-26 21:20:00,
2013-06-26 16:30:00,93.3,73.6,29.77,SSW,209,7.0,10.0,53,0.00,CLR,,0.00,0.0,WeatherDisplay:10.37,2013-06-26 21:30:00,
2013-06-26 16:40:00,93.2,73.5,29.77,SSW,210,6.0,13.0,53,0.00,CLR,,0.00,0.0,WeatherDisplay:10.37,2013-06-26 21:40:00,
2013-06-26 16:50:00,93.1,73.4,29.76,SW,221,6.0,12.0,53,0.00,CLR,,0.00,0.0,WeatherDisplay:10.37,2013-06-26 21:50:00,
2013-06-26 17:00:00,93.1,73.4,29.77,SSW,208,6.0,15.0,53,0.00,CLR,,0.00,0.0,WeatherDisplay:10.37,2013-06-26 22:00:00,
2013-06-26 17:10:00,93.1,71.7,29.77,SSW,212,7.0,14.0,50,0.00,CLR,,0.00,0.0,WeatherDisplay:10.37,2013-06-26 22:10:00,
2013-06-26 17:20:00,93.2,72.4,29.77,SSW,198,6.0,12.0,51,0.00,CLR,,0.00,0.0,WeatherDisplay:10.37,2013-06-26 22:20:00,
2013-06-26 17:30:00,93.1,72.3,29.77,SSW,212,6.0,12.0,51,0.00,CLR,,0.00,0.0,WeatherDisplay:10.37,2013-06-26 22:30:00,
2013-06-26 17:40:00,93.1,72.9,29.78,SSW,211,5.0,10.0,52,0.00,CLR,,0.00,0.0,WeatherDisplay:10.37,2013-06-26 22:40:00,
2013-06-26 17:50:00,93.2,72.4,29.78,SW,217,5.0,10.0,51,0.00,CLR,,0.00,0.0,WeatherDisplay:10.37,2013-06-26 22:50:00,
2013-06-26 18:00:00,92.8,71.4,29.77,SW,215,6.0,13.0,50,0.00,CLR,,0.00,0.0,WeatherDisplay:10.37,2013-06-26 23:00:00,
2013-06-26 18:10:00,92.5,71.8,29.77,SW,223,6.0,10.0,51,0.00,CLR,,0.00,0.0,WeatherDisplay:10.37,2013-06-26 23:10:00,
2013-06-26 18:20:00,92.4,71.7,29.77,SW,215,3.0,10.0,51,0.00,CLR,,0.00,0.0,WeatherDisplay:10.37,2013-06-26 23:20:00,
2013-06-26 18:30:00,92.2,72.0,29.76,South,191,5.0,9.0,52,0.00,CLR,,0.00,0.0,WeatherDisplay:10.37,2013-06-26 23:30:00,
2013-06-26 18:40:00,91.8,72.2,29.75,SW,215,5.0,8.0,53,0.00,CLR,,0.00,0.0,WeatherDisplay:10.37,2013-06-26 23:40:00,
2013-06-26 18:50:00,91.4,72.4,29.75,SSW,208,2.0,8.0,54,0.00,CLR,,0.00,0.0,WeatherDisplay:10.37,2013-06-26 23:50:00,
2013-06-26 19:00:00,91.0,72.6,29.75,SW,221,2.0,8.0,55,0.00,CLR,,0.00,0.0,WeatherDisplay:10.37,2013-06-27 00:00:00,
2013-06-26 19:10:00,90.6,72.8,29.75,SW,215,3.0,8.0,56,0.00,CLR,,0.00,0.0,WeatherDisplay:10.37,2013-06-27 00:10:00,
2013-06-26 19:20:00,90.2,72.9,29.74,SW,220,2.0,5.0,57,0.00,CLR,,0.00,0.0,WeatherDisplay:10.37,2013-06-27 00:20:00,
2013-06-26 19:30:00,89.4,72.2,29.74,SW,223,3.0,9.0,57,0.00,CLR,,0.00,0.0,WeatherDisplay:10.37,2013-06-27 00:30:00,
2013-06-26 19:40:00,88.3,72.2,29.75,SW,222,2.0,5.0,59,0.00,CLR,,0.00,0.0,WeatherDisplay:10.37,2013-06-27 00:40:00,
2013-06-26 19:50:00,87.8,71.7,29.75,SW,217,3.0,8.0,59,0.00,CLR,,0.00,0.0,WeatherDisplay:10.37,2013-06-27 00:50:00,
2013-06-26 20:00:00,87.3,71.2,29.74,SW,216,3.0,9.0,59,0.00,CLR,,0.00,0.0,WeatherDisplay:10.37,2013-06-27 01:00:00,
2013-06-26 20:10:00,86.9,71.3,29.74,SSW,213,3.0,8.0,60,0.00,CLR,,0.00,0.0,WeatherDisplay:10.37,2013-06-27 01:10:00,
2013-06-26 20:20:00,86.5,71.0,29.75,SW,216,3.0,6.0,60,0.00,CLR,,0.00,0.0,WeatherDisplay:10.37,2013-06-27 01:20:00,
2013-06-26 20:30:00,86.5,71.0,29.76,SW,214,2.0,9.0,60,0.00,CLR,,0.00,0.0,WeatherDisplay:10.37,2013-06-27 01:30:00,
2013-06-26 20:40:00,86.4,70.9,29.76,SW,214,3.0,7.0,60,0.00,CLR,,0.00,0.0,WeatherDisplay:10.37,2013-06-27 01:40:00,
2013-06-26 20:50:00,86.1,71.1,29.76,SW,214,3.0,7.0,61,0.00,CLR,,0.00,0.0,WeatherDisplay:10.37,2013-06-27 01:50:00,
2013-06-26 21:00:00,85.6,71.1,29.75,SW,216,2.0,10.0,62,0.00,CLR,,0.00,0.0,WeatherDisplay:10.37,2013-06-27 02:00:00,
2013-06-26 21:10:00,85.3,71.3,29.75,SW,216,2.0,8.0,63,0.00,CLR,,0.00,0.0,WeatherDisplay:10.37,2013-06-27 02:10:00,
2013-06-26 21:20:00,85.2,71.2,29.75,SW,225,3.0,6.0,63,0.00,CLR,,0.00,0.0,WeatherDisplay:10.37,2013-06-27 02:20:00,
2013-06-26 21:30:00,85.0,71.5,29.76,SW,219,3.0,6.0,64,0.00,CLR,,0.00,0.0,WeatherDisplay:10.37,2013-06-27 02:30:00,
2013-06-26 21:40:00,85.0,71.4,29.75,SSW,213,3.0,8.0,64,0.00,CLR,,0.00,0.0,WeatherDisplay:10.37,2013-06-27 02:40:00,
2013-06-26 21:50:00,84.7,71.6,29.76,SW,217,3.0,6.0,65,0.00,CLR,,0.00,0.0,WeatherDisplay:10.37,2013-06-27 02:50:00,
2013-06-26 22:00:00,84.4,71.8,29.75,SSW,208,2.0,4.0,66,0.00,CLR,,0.00,0.0,WeatherDisplay:10.37,2013-06-27 03:00:00,
2013-06-26 22:10:00,84.1,71.5,29.75,SW,221,3.0,5.0,66,0.00,CLR,,0.00,0.0,WeatherDisplay:10.37,2013-06-27 03:10:00,
2013-06-26 22:20:00,84.0,71.9,29.75,SW,224,2.0,6.0,67,0.00,CLR,,0.00,0.0,WeatherDisplay:10.37,2013-06-27 03:20:00,
2013-06-26 22:30:00,83.9,71.8,29.76,SW,223,2.0,6.0,67,0.00,CLR,,0.00,0.0,WeatherDisplay:10.37,2013-06-27 03:30:00,
2013-06-26 22:40:00,83.8,72.1,29.76,SW,217,2.0,5.0,68,0.00,CLR,,0.00,0.0,WeatherDisplay:10.37,2013-06-27 03:40:00,
2013-06-26 22:50:00,83.6,71.9,29.76,SW,220,3.0,6.0,68,0.00,CLR,,0.00,0.0,WeatherDisplay:10.37,2013-06-27 03:50:00,
2013-06-26 23:00:00,83.4,72.2,29.76,SW,225,3.0,6.0,69,0.00,CLR,,0.00,0.0,WeatherDisplay:10.37,2013-06-27 04:00:00,
2013-06-26 23:10:00,83.4,72.2,29.77,SW,214,5.0,8.0,69,0.00,CLR,,0.00,0.0,WeatherDisplay:10.37,2013-06-27 04:10:00,
2013-06-26 23:20:00,83.6,72.4,29.77,SW,214,5.0,9.0,69,0.00,CLR,,0.00,0.0,WeatherDisplay:10.37,2013-06-27 04:20:00,
2013-06-26 23:30:00,84.1,72.8,29.78,SW,217,5.0,9.0,69,0.00,CLR,,0.00,0.0,WeatherDisplay:10.37,2013-06-27 04:30:00,
2013-06-26 23:40:00,84.4,72.7,29.78,SW,216,5.0,9.0,68,0.00,CLR,,0.00,0.0,WeatherDisplay:10.37,2013-06-27 04:40:00,
2013-06-26 23:50:00,84.5,72.8,29.77,SW,220,5.0,12.0,68,0.00,CLR,,0.00,0.0,WeatherDisplay:10.37,2013-06-27 04:50:00,